sensor_id;sensor_type;location;lat;lon;timestamp;P1;durP1;ratioP1;P2;durP2;ratioP2
50821;SDS011;36794;51.212;6.980;2023-08-08T00:00:46;6.53;;;1.77;;
50821;SDS011;36794;51.212;6.980;2023-08-08T00:03:12;3.45;;;1.50;;
50821;SDS011;36794;51.212;6.980;2023-08-08T00:05:38;2.85;;;1.55;;
50821;SDS011;36794;51.212;6.980;2023-08-08T00:08:04;5.30;;;2.10;;
50821;SDS011;36794;51.212;6.980;2023-08-08T00:10:30;5.55;;;2.10;;
50821;SDS011;36794;51.212;6.980;2023-08-08T00:12:56;4.35;;;1.90;;
50821;SDS011;36794;51.212;6.980;2023-08-08T00:15:21;3.40;;;1.85;;
50821;SDS011;36794;51.212;6.980;2023-08-08T00:17:47;10.20;;;2.10;;
50821;SDS011;36794;51.212;6.980;2023-08-08T00:20:13;5.88;;;1.55;;
50821;SDS011;36794;51.212;6.980;2023-08-08T00:22:40;4.40;;;1.50;;
50821;SDS011;36794;51.212;6.980;2023-08-08T00:25:06;6.15;;;1.52;;
50821;SDS011;36794;51.212;6.980;2023-08-08T00:27:32;3.47;;;1.85;;
50821;SDS011;36794;51.212;6.980;2023-08-08T00:29:58;10.40;;;2.13;;
50821;SDS011;36794;51.212;6.980;2023-08-08T00:32:24;4.95;;;2.22;;
50821;SDS011;36794;51.212;6.980;2023-08-08T00:34:49;7.90;;;2.08;;
50821;SDS011;36794;51.212;6.980;2023-08-08T00:37:15;4.38;;;2.42;;
50821;SDS011;36794;51.212;6.980;2023-08-08T00:39:41;5.65;;;1.65;;
50821;SDS011;36794;51.212;6.980;2023-08-08T00:42:11;6.40;;;1.60;;
50821;SDS011;36794;51.212;6.980;2023-08-08T00:44:37;4.22;;;2.08;;
50821;SDS011;36794;51.212;6.980;2023-08-08T00:47:03;2.80;;;1.48;;
50821;SDS011;36794;51.212;6.980;2023-08-08T00:49:29;7.65;;;1.90;;
50821;SDS011;36794;51.212;6.980;2023-08-08T00:51:55;4.82;;;1.85;;
50821;SDS011;36794;51.212;6.980;2023-08-08T00:54:22;5.32;;;1.75;;
50821;SDS011;36794;51.212;6.980;2023-08-08T00:56:48;8.05;;;2.20;;
50821;SDS011;36794;51.212;6.980;2023-08-08T00:59:14;8.00;;;2.40;;
50821;SDS011;36794;51.212;6.980;2023-08-08T01:01:41;4.90;;;1.85;;
50821;SDS011;36794;51.212;6.980;2023-08-08T01:04:07;9.60;;;1.88;;
50821;SDS011;36794;51.212;6.980;2023-08-08T01:06:36;9.00;;;2.17;;
50821;SDS011;36794;51.212;6.980;2023-08-08T01:09:13;7.38;;;1.80;;
50821;SDS011;36794;51.212;6.980;2023-08-08T01:11:41;4.05;;;1.65;;
50821;SDS011;36794;51.212;6.980;2023-08-08T01:14:08;4.22;;;1.80;;
50821;SDS011;36794;51.212;6.980;2023-08-08T01:16:34;6.97;;;2.30;;
50821;SDS011;36794;51.212;6.980;2023-08-08T01:19:00;6.40;;;2.08;;
50821;SDS011;36794;51.212;6.980;2023-08-08T01:21:27;9.88;;;2.40;;
50821;SDS011;36794;51.212;6.980;2023-08-08T01:23:56;6.05;;;1.90;;
50821;SDS011;36794;51.212;6.980;2023-08-08T01:26:24;2.40;;;1.65;;
50821;SDS011;36794;51.212;6.980;2023-08-08T01:28:53;5.63;;;1.63;;
50821;SDS011;36794;51.212;6.980;2023-08-08T01:31:19;7.03;;;2.00;;
50821;SDS011;36794;51.212;6.980;2023-08-08T01:33:45;3.70;;;1.70;;
50821;SDS011;36794;51.212;6.980;2023-08-08T01:36:22;3.90;;;2.05;;
50821;SDS011;36794;51.212;6.980;2023-08-08T01:38:50;7.55;;;2.13;;
50821;SDS011;36794;51.212;6.980;2023-08-08T01:41:17;4.10;;;2.17;;
50821;SDS011;36794;51.212;6.980;2023-08-08T01:43:43;5.83;;;2.20;;
50821;SDS011;36794;51.212;6.980;2023-08-08T01:46:10;8.32;;;2.10;;
50821;SDS011;36794;51.212;6.980;2023-08-08T01:48:36;5.55;;;2.30;;
50821;SDS011;36794;51.212;6.980;2023-08-08T01:51:02;7.93;;;1.95;;
50821;SDS011;36794;51.212;6.980;2023-08-08T01:53:28;5.60;;;2.27;;
50821;SDS011;36794;51.212;6.980;2023-08-08T01:55:54;8.17;;;1.90;;
50821;SDS011;36794;51.212;6.980;2023-08-08T01:58:20;5.85;;;2.40;;
50821;SDS011;36794;51.212;6.980;2023-08-08T02:00:46;5.05;;;2.25;;
50821;SDS011;36794;51.212;6.980;2023-08-08T02:03:12;4.45;;;2.20;;
50821;SDS011;36794;51.212;6.980;2023-08-08T02:05:38;7.30;;;2.45;;
50821;SDS011;36794;51.212;6.980;2023-08-08T02:08:04;6.72;;;1.98;;
50821;SDS011;36794;51.212;6.980;2023-08-08T02:10:30;6.95;;;2.30;;
50821;SDS011;36794;51.212;6.980;2023-08-08T02:12:56;6.05;;;2.72;;
50821;SDS011;36794;51.212;6.980;2023-08-08T02:15:22;6.63;;;2.13;;
50821;SDS011;36794;51.212;6.980;2023-08-08T02:17:49;9.90;;;2.25;;
50821;SDS011;36794;51.212;6.980;2023-08-08T02:20:15;5.23;;;2.13;;
50821;SDS011;36794;51.212;6.980;2023-08-08T02:22:43;7.68;;;2.50;;
50821;SDS011;36794;51.212;6.980;2023-08-08T02:25:08;6.22;;;2.10;;
50821;SDS011;36794;51.212;6.980;2023-08-08T02:27:34;7.75;;;2.45;;
50821;SDS011;36794;51.212;6.980;2023-08-08T02:30:00;10.10;;;2.50;;
50821;SDS011;36794;51.212;6.980;2023-08-08T02:32:26;6.95;;;2.25;;
50821;SDS011;36794;51.212;6.980;2023-08-08T02:34:53;6.53;;;2.40;;
50821;SDS011;36794;51.212;6.980;2023-08-08T02:37:18;6.85;;;2.13;;
50821;SDS011;36794;51.212;6.980;2023-08-08T02:39:44;6.33;;;2.20;;
50821;SDS011;36794;51.212;6.980;2023-08-08T02:42:10;7.70;;;2.20;;
50821;SDS011;36794;51.212;6.980;2023-08-08T02:44:36;6.53;;;2.17;;
50821;SDS011;36794;51.212;6.980;2023-08-08T02:47:02;6.93;;;2.10;;
50821;SDS011;36794;51.212;6.980;2023-08-08T02:49:28;3.17;;;2.30;;
50821;SDS011;36794;51.212;6.980;2023-08-08T02:51:54;6.78;;;2.03;;
50821;SDS011;36794;51.212;6.980;2023-08-08T02:54:20;6.10;;;1.90;;
50821;SDS011;36794;51.212;6.980;2023-08-08T02:56:46;8.17;;;2.53;;
50821;SDS011;36794;51.212;6.980;2023-08-08T02:59:12;4.27;;;2.03;;
50821;SDS011;36794;51.212;6.980;2023-08-08T03:01:38;7.20;;;2.13;;
50821;SDS011;36794;51.212;6.980;2023-08-08T03:04:04;5.80;;;2.20;;
50821;SDS011;36794;51.212;6.980;2023-08-08T03:06:31;10.80;;;1.90;;
50821;SDS011;36794;51.212;6.980;2023-08-08T03:08:56;7.03;;;2.43;;
50821;SDS011;36794;51.212;6.980;2023-08-08T03:11:22;8.32;;;2.28;;
50821;SDS011;36794;51.212;6.980;2023-08-08T03:13:48;8.30;;;2.83;;
50821;SDS011;36794;51.212;6.980;2023-08-08T03:16:14;8.73;;;2.20;;
50821;SDS011;36794;51.212;6.980;2023-08-08T03:18:40;6.13;;;2.25;;
50821;SDS011;36794;51.212;6.980;2023-08-08T03:21:06;6.65;;;2.42;;
50821;SDS011;36794;51.212;6.980;2023-08-08T03:23:32;8.20;;;2.07;;
50821;SDS011;36794;51.212;6.980;2023-08-08T03:25:58;8.30;;;2.07;;
50821;SDS011;36794;51.212;6.980;2023-08-08T03:28:24;9.97;;;2.23;;
50821;SDS011;36794;51.212;6.980;2023-08-08T03:30:50;8.60;;;2.40;;
50821;SDS011;36794;51.212;6.980;2023-08-08T03:33:16;9.77;;;2.10;;
50821;SDS011;36794;51.212;6.980;2023-08-08T03:35:42;6.28;;;2.20;;
50821;SDS011;36794;51.212;6.980;2023-08-08T03:38:08;7.03;;;2.10;;
50821;SDS011;36794;51.212;6.980;2023-08-08T03:40:34;7.63;;;2.10;;
50821;SDS011;36794;51.212;6.980;2023-08-08T03:43:00;4.93;;;2.10;;
50821;SDS011;36794;51.212;6.980;2023-08-08T03:45:27;5.35;;;2.00;;
50821;SDS011;36794;51.212;6.980;2023-08-08T03:47:53;6.00;;;2.23;;
50821;SDS011;36794;51.212;6.980;2023-08-08T03:50:19;6.87;;;2.10;;
50821;SDS011;36794;51.212;6.980;2023-08-08T03:52:45;7.43;;;2.10;;
50821;SDS011;36794;51.212;6.980;2023-08-08T03:55:10;7.80;;;2.00;;
50821;SDS011;36794;51.212;6.980;2023-08-08T03:57:36;8.40;;;2.28;;
50821;SDS011;36794;51.212;6.980;2023-08-08T04:00:02;8.25;;;2.97;;
50821;SDS011;36794;51.212;6.980;2023-08-08T04:02:29;9.13;;;1.98;;
50821;SDS011;36794;51.212;6.980;2023-08-08T04:04:55;8.10;;;2.20;;
50821;SDS011;36794;51.212;6.980;2023-08-08T04:07:21;8.30;;;2.40;;
50821;SDS011;36794;51.212;6.980;2023-08-08T04:09:47;9.55;;;2.30;;
50821;SDS011;36794;51.212;6.980;2023-08-08T04:12:13;12.45;;;2.53;;
50821;SDS011;36794;51.212;6.980;2023-08-08T04:14:39;8.35;;;2.20;;
50821;SDS011;36794;51.212;6.980;2023-08-08T04:17:04;7.72;;;2.28;;
50821;SDS011;36794;51.212;6.980;2023-08-08T04:19:30;8.88;;;2.35;;
50821;SDS011;36794;51.212;6.980;2023-08-08T04:21:57;7.40;;;2.38;;
50821;SDS011;36794;51.212;6.980;2023-08-08T04:24:24;8.23;;;2.28;;
50821;SDS011;36794;51.212;6.980;2023-08-08T04:26:50;7.40;;;2.20;;
50821;SDS011;36794;51.212;6.980;2023-08-08T04:29:16;7.55;;;2.13;;
50821;SDS011;36794;51.212;6.980;2023-08-08T04:31:42;10.10;;;2.70;;
50821;SDS011;36794;51.212;6.980;2023-08-08T04:34:08;9.25;;;2.28;;
50821;SDS011;36794;51.212;6.980;2023-08-08T04:36:34;11.52;;;2.80;;
50821;SDS011;36794;51.212;6.980;2023-08-08T04:39:00;10.48;;;2.80;;
50821;SDS011;36794;51.212;6.980;2023-08-08T04:41:26;8.07;;;2.13;;
50821;SDS011;36794;51.212;6.980;2023-08-08T04:43:52;8.45;;;2.30;;
50821;SDS011;36794;51.212;6.980;2023-08-08T04:46:18;10.20;;;2.83;;
50821;SDS011;36794;51.212;6.980;2023-08-08T04:48:44;10.13;;;2.72;;
50821;SDS011;36794;51.212;6.980;2023-08-08T04:51:10;9.48;;;2.58;;
50821;SDS011;36794;51.212;6.980;2023-08-08T04:53:35;8.32;;;2.38;;
50821;SDS011;36794;51.212;6.980;2023-08-08T04:56:02;10.23;;;2.90;;
50821;SDS011;36794;51.212;6.980;2023-08-08T04:58:28;11.40;;;2.90;;
50821;SDS011;36794;51.212;6.980;2023-08-08T05:00:54;13.25;;;3.75;;
50821;SDS011;36794;51.212;6.980;2023-08-08T05:03:20;7.30;;;2.78;;
50821;SDS011;36794;51.212;6.980;2023-08-08T05:05:46;15.95;;;3.08;;
50821;SDS011;36794;51.212;6.980;2023-08-08T05:08:12;11.65;;;3.15;;
50821;SDS011;36794;51.212;6.980;2023-08-08T05:10:38;11.77;;;3.55;;
50821;SDS011;36794;51.212;6.980;2023-08-08T05:13:04;9.05;;;3.05;;
50821;SDS011;36794;51.212;6.980;2023-08-08T05:15:30;13.05;;;3.13;;
50821;SDS011;36794;51.212;6.980;2023-08-08T05:17:56;11.20;;;3.40;;
50821;SDS011;36794;51.212;6.980;2023-08-08T05:20:22;9.20;;;3.30;;
50821;SDS011;36794;51.212;6.980;2023-08-08T05:22:48;14.65;;;3.60;;
50821;SDS011;36794;51.212;6.980;2023-08-08T05:25:14;12.65;;;3.70;;
50821;SDS011;36794;51.212;6.980;2023-08-08T05:27:40;11.82;;;3.88;;
50821;SDS011;36794;51.212;6.980;2023-08-08T05:30:06;16.45;;;3.70;;
50821;SDS011;36794;51.212;6.980;2023-08-08T05:32:32;12.52;;;3.22;;
50821;SDS011;36794;51.212;6.980;2023-08-08T05:34:58;11.38;;;3.88;;
50821;SDS011;36794;51.212;6.980;2023-08-08T05:37:25;12.82;;;4.00;;
50821;SDS011;36794;51.212;6.980;2023-08-08T05:39:51;13.38;;;3.38;;
50821;SDS011;36794;51.212;6.980;2023-08-08T05:42:17;13.52;;;4.07;;
50821;SDS011;36794;51.212;6.980;2023-08-08T05:44:43;15.57;;;4.32;;
50821;SDS011;36794;51.212;6.980;2023-08-08T05:47:10;14.32;;;4.10;;
50821;SDS011;36794;51.212;6.980;2023-08-08T05:49:36;12.75;;;3.72;;
50821;SDS011;36794;51.212;6.980;2023-08-08T05:52:02;12.10;;;4.25;;
50821;SDS011;36794;51.212;6.980;2023-08-08T05:54:28;17.52;;;4.22;;
50821;SDS011;36794;51.212;6.980;2023-08-08T05:56:54;15.30;;;4.25;;
50821;SDS011;36794;51.212;6.980;2023-08-08T05:59:20;10.80;;;3.90;;
50821;SDS011;36794;51.212;6.980;2023-08-08T06:01:46;13.32;;;3.83;;
50821;SDS011;36794;51.212;6.980;2023-08-08T06:04:12;17.90;;;4.20;;
50821;SDS011;36794;51.212;6.980;2023-08-08T06:06:38;8.77;;;3.72;;
50821;SDS011;36794;51.212;6.980;2023-08-08T06:09:05;11.20;;;3.78;;
50821;SDS011;36794;51.212;6.980;2023-08-08T06:11:30;9.75;;;4.03;;
50821;SDS011;36794;51.212;6.980;2023-08-08T06:13:57;18.23;;;4.82;;
50821;SDS011;36794;51.212;6.980;2023-08-08T06:16:23;15.07;;;4.28;;
50821;SDS011;36794;51.212;6.980;2023-08-08T06:18:49;12.55;;;4.43;;
50821;SDS011;36794;51.212;6.980;2023-08-08T06:21:15;10.68;;;4.68;;
50821;SDS011;36794;51.212;6.980;2023-08-08T06:23:41;15.05;;;4.90;;
50821;SDS011;36794;51.212;6.980;2023-08-08T06:26:07;18.25;;;5.20;;
50821;SDS011;36794;51.212;6.980;2023-08-08T06:28:34;16.10;;;5.53;;
50821;SDS011;36794;51.212;6.980;2023-08-08T06:31:00;20.42;;;5.60;;
50821;SDS011;36794;51.212;6.980;2023-08-08T06:33:27;18.92;;;5.15;;
50821;SDS011;36794;51.212;6.980;2023-08-08T06:35:53;15.82;;;5.20;;
50821;SDS011;36794;51.212;6.980;2023-08-08T06:38:19;16.30;;;5.15;;
50821;SDS011;36794;51.212;6.980;2023-08-08T06:40:45;12.48;;;4.35;;
50821;SDS011;36794;51.212;6.980;2023-08-08T06:43:11;18.80;;;5.25;;
50821;SDS011;36794;51.212;6.980;2023-08-08T06:45:37;14.32;;;4.40;;
50821;SDS011;36794;51.212;6.980;2023-08-08T06:48:04;11.82;;;4.60;;
50821;SDS011;36794;51.212;6.980;2023-08-08T06:50:30;11.02;;;4.38;;
50821;SDS011;36794;51.212;6.980;2023-08-08T06:52:56;14.52;;;3.70;;
50821;SDS011;36794;51.212;6.980;2023-08-08T06:55:22;17.38;;;4.43;;
50821;SDS011;36794;51.212;6.980;2023-08-08T06:57:47;16.08;;;4.35;;
50821;SDS011;36794;51.212;6.980;2023-08-08T07:00:14;18.27;;;3.97;;
50821;SDS011;36794;51.212;6.980;2023-08-08T07:02:41;11.93;;;3.90;;
50821;SDS011;36794;51.212;6.980;2023-08-08T07:05:07;16.50;;;3.90;;
50821;SDS011;36794;51.212;6.980;2023-08-08T07:07:34;13.00;;;3.88;;
50821;SDS011;36794;51.212;6.980;2023-08-08T07:10:01;14.70;;;4.07;;
50821;SDS011;36794;51.212;6.980;2023-08-08T07:12:28;15.15;;;4.93;;
50821;SDS011;36794;51.212;6.980;2023-08-08T07:14:54;13.55;;;3.90;;
50821;SDS011;36794;51.212;6.980;2023-08-08T07:17:20;11.82;;;3.78;;
50821;SDS011;36794;51.212;6.980;2023-08-08T07:19:45;14.52;;;4.10;;
50821;SDS011;36794;51.212;6.980;2023-08-08T07:22:11;10.93;;;3.33;;
50821;SDS011;36794;51.212;6.980;2023-08-08T07:24:37;10.35;;;3.40;;
50821;SDS011;36794;51.212;6.980;2023-08-08T07:27:04;10.18;;;3.67;;
50821;SDS011;36794;51.212;6.980;2023-08-08T07:29:30;13.38;;;4.07;;
50821;SDS011;36794;51.212;6.980;2023-08-08T07:31:57;17.23;;;4.93;;
50821;SDS011;36794;51.212;6.980;2023-08-08T07:34:23;13.73;;;4.07;;
50821;SDS011;36794;51.212;6.980;2023-08-08T07:36:50;12.43;;;4.07;;
50821;SDS011;36794;51.212;6.980;2023-08-08T07:39:16;13.00;;;3.90;;
50821;SDS011;36794;51.212;6.980;2023-08-08T07:41:42;13.95;;;3.67;;
50821;SDS011;36794;51.212;6.980;2023-08-08T07:44:08;17.65;;;3.75;;
50821;SDS011;36794;51.212;6.980;2023-08-08T07:46:34;11.93;;;3.30;;
50821;SDS011;36794;51.212;6.980;2023-08-08T07:49:00;16.20;;;3.75;;
50821;SDS011;36794;51.212;6.980;2023-08-08T07:51:28;15.20;;;3.70;;
50821;SDS011;36794;51.212;6.980;2023-08-08T07:53:54;11.13;;;2.95;;
50821;SDS011;36794;51.212;6.980;2023-08-08T07:56:20;18.08;;;4.80;;
50821;SDS011;36794;51.212;6.980;2023-08-08T07:58:46;8.73;;;3.10;;
50821;SDS011;36794;51.212;6.980;2023-08-08T08:01:12;12.10;;;3.35;;
50821;SDS011;36794;51.212;6.980;2023-08-08T08:03:38;14.13;;;3.80;;
50821;SDS011;36794;51.212;6.980;2023-08-08T08:06:04;12.52;;;3.58;;
50821;SDS011;36794;51.212;6.980;2023-08-08T08:08:30;9.52;;;3.47;;
50821;SDS011;36794;51.212;6.980;2023-08-08T08:10:56;14.27;;;3.85;;
50821;SDS011;36794;51.212;6.980;2023-08-08T08:13:22;12.23;;;3.50;;
50821;SDS011;36794;51.212;6.980;2023-08-08T08:15:48;11.13;;;3.47;;
50821;SDS011;36794;51.212;6.980;2023-08-08T08:18:14;15.82;;;4.38;;
50821;SDS011;36794;51.212;6.980;2023-08-08T08:20:42;8.80;;;3.08;;
50821;SDS011;36794;51.212;6.980;2023-08-08T08:23:08;9.35;;;2.80;;
50821;SDS011;36794;51.212;6.980;2023-08-08T08:25:34;13.02;;;3.20;;
50821;SDS011;36794;51.212;6.980;2023-08-08T08:28:00;10.45;;;2.90;;
50821;SDS011;36794;51.212;6.980;2023-08-08T08:30:26;8.30;;;3.05;;
50821;SDS011;36794;51.212;6.980;2023-08-08T08:32:52;17.50;;;3.63;;
50821;SDS011;36794;51.212;6.980;2023-08-08T08:35:18;10.43;;;3.10;;
50821;SDS011;36794;51.212;6.980;2023-08-08T08:37:45;9.68;;;3.10;;
50821;SDS011;36794;51.212;6.980;2023-08-08T08:40:11;7.82;;;2.95;;
50821;SDS011;36794;51.212;6.980;2023-08-08T08:42:37;12.00;;;2.97;;
50821;SDS011;36794;51.212;6.980;2023-08-08T08:45:05;11.85;;;2.88;;
50821;SDS011;36794;51.212;6.980;2023-08-08T08:47:32;11.15;;;2.83;;
50821;SDS011;36794;51.212;6.980;2023-08-08T08:49:59;13.60;;;3.00;;
50821;SDS011;36794;51.212;6.980;2023-08-08T08:52:27;11.32;;;3.30;;
50821;SDS011;36794;51.212;6.980;2023-08-08T08:54:53;11.68;;;3.25;;
50821;SDS011;36794;51.212;6.980;2023-08-08T08:57:20;14.07;;;2.80;;
50821;SDS011;36794;51.212;6.980;2023-08-08T08:59:48;13.05;;;2.63;;
50821;SDS011;36794;51.212;6.980;2023-08-08T09:02:14;14.70;;;3.30;;
50821;SDS011;36794;51.212;6.980;2023-08-08T09:04:42;15.13;;;3.05;;
50821;SDS011;36794;51.212;6.980;2023-08-08T09:07:08;14.45;;;3.22;;
50821;SDS011;36794;51.212;6.980;2023-08-08T09:09:35;9.13;;;2.80;;
50821;SDS011;36794;51.212;6.980;2023-08-08T09:12:02;16.25;;;3.28;;
50821;SDS011;36794;51.212;6.980;2023-08-08T09:14:29;10.20;;;2.70;;
50821;SDS011;36794;51.212;6.980;2023-08-08T09:16:55;14.52;;;2.80;;
50821;SDS011;36794;51.212;6.980;2023-08-08T09:19:22;13.02;;;3.13;;
50821;SDS011;36794;51.212;6.980;2023-08-08T09:21:48;11.80;;;2.50;;
50821;SDS011;36794;51.212;6.980;2023-08-08T09:24:15;12.25;;;2.90;;
50821;SDS011;36794;51.212;6.980;2023-08-08T09:26:41;9.75;;;3.35;;
50821;SDS011;36794;51.212;6.980;2023-08-08T09:29:08;11.00;;;3.30;;
50821;SDS011;36794;51.212;6.980;2023-08-08T09:31:34;9.38;;;2.85;;
50821;SDS011;36794;51.212;6.980;2023-08-08T09:34:02;10.30;;;2.88;;
50821;SDS011;36794;51.212;6.980;2023-08-08T09:36:28;10.73;;;2.78;;
50821;SDS011;36794;51.212;6.980;2023-08-08T09:38:54;11.32;;;3.03;;
50821;SDS011;36794;51.212;6.980;2023-08-08T09:41:21;13.52;;;3.30;;
50821;SDS011;36794;51.212;6.980;2023-08-08T09:43:48;9.52;;;2.60;;
50821;SDS011;36794;51.212;6.980;2023-08-08T09:46:14;10.48;;;2.53;;
50821;SDS011;36794;51.212;6.980;2023-08-08T09:48:41;10.38;;;2.65;;
50821;SDS011;36794;51.212;6.980;2023-08-08T09:51:07;7.50;;;2.63;;
50821;SDS011;36794;51.212;6.980;2023-08-08T09:53:34;10.63;;;2.63;;
50821;SDS011;36794;51.212;6.980;2023-08-08T09:56:00;7.60;;;2.50;;
50821;SDS011;36794;51.212;6.980;2023-08-08T09:58:27;12.18;;;3.67;;
50821;SDS011;36794;51.212;6.980;2023-08-08T10:00:53;15.55;;;3.08;;
50821;SDS011;36794;51.212;6.980;2023-08-08T10:03:19;6.55;;;2.40;;
50821;SDS011;36794;51.212;6.980;2023-08-08T10:05:45;7.30;;;2.60;;
50821;SDS011;36794;51.212;6.980;2023-08-08T10:08:11;10.75;;;2.80;;
50821;SDS011;36794;51.212;6.980;2023-08-08T10:10:37;10.30;;;2.45;;
50821;SDS011;36794;51.212;6.980;2023-08-08T10:13:04;11.13;;;2.17;;
50821;SDS011;36794;51.212;6.980;2023-08-08T10:15:30;9.60;;;2.33;;
50821;SDS011;36794;51.212;6.980;2023-08-08T10:17:57;8.10;;;2.35;;
50821;SDS011;36794;51.212;6.980;2023-08-08T10:20:24;10.32;;;2.08;;
50821;SDS011;36794;51.212;6.980;2023-08-08T10:22:52;14.70;;;2.40;;
50821;SDS011;36794;51.212;6.980;2023-08-08T10:25:26;7.80;;;2.17;;
50821;SDS011;36794;51.212;6.980;2023-08-08T10:28:03;9.95;;;2.45;;
50821;SDS011;36794;51.212;6.980;2023-08-08T10:30:29;9.73;;;2.17;;
50821;SDS011;36794;51.212;6.980;2023-08-08T10:32:56;15.55;;;2.95;;
50821;SDS011;36794;51.212;6.980;2023-08-08T10:35:24;11.52;;;2.58;;
50821;SDS011;36794;51.212;6.980;2023-08-08T10:38:00;8.77;;;2.45;;
50821;SDS011;36794;51.212;6.980;2023-08-08T10:40:32;12.43;;;3.30;;
50821;SDS011;36794;51.212;6.980;2023-08-08T10:42:58;9.10;;;2.60;;
50821;SDS011;36794;51.212;6.980;2023-08-08T10:45:28;7.63;;;2.97;;
50821;SDS011;36794;51.212;6.980;2023-08-08T10:47:55;12.00;;;3.40;;
50821;SDS011;36794;51.212;6.980;2023-08-08T10:50:24;13.73;;;3.60;;
50821;SDS011;36794;51.212;6.980;2023-08-08T10:55:24;9.25;;;3.65;;
50821;SDS011;36794;51.212;6.980;2023-08-08T10:58:07;11.07;;;4.65;;
50821;SDS011;36794;51.212;6.980;2023-08-08T11:00:37;17.50;;;4.50;;
50821;SDS011;36794;51.212;6.980;2023-08-08T11:03:07;10.98;;;5.28;;
50821;SDS011;36794;51.212;6.980;2023-08-08T11:05:34;15.27;;;4.65;;
50821;SDS011;36794;51.212;6.980;2023-08-08T11:08:01;11.68;;;4.03;;
50821;SDS011;36794;51.212;6.980;2023-08-08T11:10:28;14.35;;;3.38;;
50821;SDS011;36794;51.212;6.980;2023-08-08T11:12:56;17.08;;;4.13;;
50821;SDS011;36794;51.212;6.980;2023-08-08T11:15:23;9.63;;;3.50;;
50821;SDS011;36794;51.212;6.980;2023-08-08T11:17:49;6.85;;;3.20;;
50821;SDS011;36794;51.212;6.980;2023-08-08T11:20:17;11.48;;;3.88;;
50821;SDS011;36794;51.212;6.980;2023-08-08T11:22:43;15.82;;;3.35;;
50821;SDS011;36794;51.212;6.980;2023-08-08T11:25:09;13.98;;;3.58;;
50821;SDS011;36794;51.212;6.980;2023-08-08T11:27:35;12.23;;;4.10;;
50821;SDS011;36794;51.212;6.980;2023-08-08T11:30:02;11.27;;;3.42;;
50821;SDS011;36794;51.212;6.980;2023-08-08T11:32:28;9.52;;;3.28;;
50821;SDS011;36794;51.212;6.980;2023-08-08T11:34:54;11.30;;;3.47;;
50821;SDS011;36794;51.212;6.980;2023-08-08T11:37:21;10.95;;;4.22;;
50821;SDS011;36794;51.212;6.980;2023-08-08T11:39:47;11.43;;;3.95;;
50821;SDS011;36794;51.212;6.980;2023-08-08T11:42:13;13.13;;;3.78;;
50821;SDS011;36794;51.212;6.980;2023-08-08T11:44:39;12.60;;;3.50;;
50821;SDS011;36794;51.212;6.980;2023-08-08T11:47:05;8.57;;;2.95;;
50821;SDS011;36794;51.212;6.980;2023-08-08T11:49:39;4.88;;;2.78;;
50821;SDS011;36794;51.212;6.980;2023-08-08T11:52:06;7.07;;;2.08;;
50821;SDS011;36794;51.212;6.980;2023-08-08T11:54:32;10.00;;;2.65;;
50821;SDS011;36794;51.212;6.980;2023-08-08T11:57:00;7.28;;;2.55;;
50821;SDS011;36794;51.212;6.980;2023-08-08T11:59:26;8.95;;;2.63;;
50821;SDS011;36794;51.212;6.980;2023-08-08T12:01:52;9.32;;;2.30;;
50821;SDS011;36794;51.212;6.980;2023-08-08T12:04:19;10.65;;;2.05;;
50821;SDS011;36794;51.212;6.980;2023-08-08T12:06:45;9.25;;;2.13;;
50821;SDS011;36794;51.212;6.980;2023-08-08T12:09:12;8.23;;;2.15;;
50821;SDS011;36794;51.212;6.980;2023-08-08T12:11:38;10.18;;;2.30;;
50821;SDS011;36794;51.212;6.980;2023-08-08T12:14:07;12.13;;;2.33;;
50821;SDS011;36794;51.212;6.980;2023-08-08T12:16:37;7.85;;;2.30;;
50821;SDS011;36794;51.212;6.980;2023-08-08T12:19:04;8.45;;;1.95;;
50821;SDS011;36794;51.212;6.980;2023-08-08T12:21:32;8.70;;;2.10;;
50821;SDS011;36794;51.212;6.980;2023-08-08T12:23:59;6.82;;;1.98;;
50821;SDS011;36794;51.212;6.980;2023-08-08T12:26:25;8.70;;;2.03;;
50821;SDS011;36794;51.212;6.980;2023-08-08T12:28:51;6.32;;;2.13;;
50821;SDS011;36794;51.212;6.980;2023-08-08T12:31:21;6.88;;;2.25;;
50821;SDS011;36794;51.212;6.980;2023-08-08T12:33:47;6.07;;;2.20;;
50821;SDS011;36794;51.212;6.980;2023-08-08T12:36:13;5.68;;;2.10;;
50821;SDS011;36794;51.212;6.980;2023-08-08T12:38:40;5.10;;;1.92;;
50821;SDS011;36794;51.212;6.980;2023-08-08T12:41:05;4.20;;;1.60;;
50821;SDS011;36794;51.212;6.980;2023-08-08T12:43:31;6.00;;;1.70;;
50821;SDS011;36794;51.212;6.980;2023-08-08T12:45:59;3.28;;;1.45;;
50821;SDS011;36794;51.212;6.980;2023-08-08T12:48:25;3.63;;;1.38;;
50821;SDS011;36794;51.212;6.980;2023-08-08T12:50:51;3.72;;;1.40;;
50821;SDS011;36794;51.212;6.980;2023-08-08T12:53:17;4.05;;;1.30;;
50821;SDS011;36794;51.212;6.980;2023-08-08T12:55:42;4.57;;;1.48;;
50821;SDS011;36794;51.212;6.980;2023-08-08T12:58:09;4.00;;;1.42;;
50821;SDS011;36794;51.212;6.980;2023-08-08T13:00:34;3.28;;;1.60;;
50821;SDS011;36794;51.212;6.980;2023-08-08T13:03:01;6.63;;;1.50;;
50821;SDS011;36794;51.212;6.980;2023-08-08T13:05:27;5.57;;;1.45;;
50821;SDS011;36794;51.212;6.980;2023-08-08T13:07:53;5.45;;;1.40;;
50821;SDS011;36794;51.212;6.980;2023-08-08T13:10:19;7.53;;;1.80;;
50821;SDS011;36794;51.212;6.980;2023-08-08T13:12:45;6.43;;;1.85;;
50821;SDS011;36794;51.212;6.980;2023-08-08T13:15:12;6.10;;;2.00;;
50821;SDS011;36794;51.212;6.980;2023-08-08T13:17:38;7.32;;;1.73;;
50821;SDS011;36794;51.212;6.980;2023-08-08T13:20:04;5.90;;;1.90;;
50821;SDS011;36794;51.212;6.980;2023-08-08T13:22:30;6.15;;;1.80;;
50821;SDS011;36794;51.212;6.980;2023-08-08T13:24:56;6.38;;;2.15;;
50821;SDS011;36794;51.212;6.980;2023-08-08T13:27:22;8.85;;;3.25;;
50821;SDS011;36794;51.212;6.980;2023-08-08T13:29:48;6.15;;;1.67;;
50821;SDS011;36794;51.212;6.980;2023-08-08T13:32:14;8.77;;;2.08;;
50821;SDS011;36794;51.212;6.980;2023-08-08T13:34:40;13.50;;;2.90;;
50821;SDS011;36794;51.212;6.980;2023-08-08T13:37:06;6.05;;;1.95;;
50821;SDS011;36794;51.212;6.980;2023-08-08T13:39:32;8.60;;;2.13;;
50821;SDS011;36794;51.212;6.980;2023-08-08T13:41:58;5.80;;;1.80;;
50821;SDS011;36794;51.212;6.980;2023-08-08T13:44:24;6.63;;;2.20;;
50821;SDS011;36794;51.212;6.980;2023-08-08T13:46:49;9.68;;;1.83;;
50821;SDS011;36794;51.212;6.980;2023-08-08T13:49:16;8.02;;;1.88;;
50821;SDS011;36794;51.212;6.980;2023-08-08T13:51:42;4.40;;;1.63;;
50821;SDS011;36794;51.212;6.980;2023-08-08T13:54:09;5.38;;;1.55;;
50821;SDS011;36794;51.212;6.980;2023-08-08T13:56:35;6.70;;;1.65;;
50821;SDS011;36794;51.212;6.980;2023-08-08T13:59:01;5.90;;;1.83;;
50821;SDS011;36794;51.212;6.980;2023-08-08T14:01:27;8.40;;;1.65;;
50821;SDS011;36794;51.212;6.980;2023-08-08T14:03:53;6.75;;;2.00;;
50821;SDS011;36794;51.212;6.980;2023-08-08T14:06:19;8.50;;;1.98;;
50821;SDS011;36794;51.212;6.980;2023-08-08T14:08:45;7.30;;;1.98;;
50821;SDS011;36794;51.212;6.980;2023-08-08T14:11:10;8.38;;;1.73;;
50821;SDS011;36794;51.212;6.980;2023-08-08T14:13:36;8.55;;;1.90;;
50821;SDS011;36794;51.212;6.980;2023-08-08T14:16:04;7.10;;;1.90;;
50821;SDS011;36794;51.212;6.980;2023-08-08T14:18:30;13.65;;;2.25;;
50821;SDS011;36794;51.212;6.980;2023-08-08T14:21:03;5.78;;;1.60;;
50821;SDS011;36794;51.212;6.980;2023-08-08T14:23:30;9.93;;;2.22;;
50821;SDS011;36794;51.212;6.980;2023-08-08T14:25:56;9.45;;;1.90;;
50821;SDS011;36794;51.212;6.980;2023-08-08T14:28:25;6.15;;;1.70;;
50821;SDS011;36794;51.212;6.980;2023-08-08T14:30:57;8.75;;;1.80;;
50821;SDS011;36794;51.212;6.980;2023-08-08T14:33:23;7.22;;;1.73;;
50821;SDS011;36794;51.212;6.980;2023-08-08T14:35:49;6.85;;;2.10;;
50821;SDS011;36794;51.212;6.980;2023-08-08T14:38:15;9.98;;;1.95;;
50821;SDS011;36794;51.212;6.980;2023-08-08T14:40:41;4.70;;;1.70;;